Time;durP1;ratioP1;P1;durP2;ratioP2;P2;SDS_P1;SDS_P2;PMS_P1;PMS_P2;Temp;Humidity;BMP_temperature;BMP_pressure;BME280_temperature;BME280_humidity;BME280_pressure;Samples;Min_cycle;Max_cycle;Signal;HPM_P1;HPM_P2
2022/07/09 00:01:54;;;;;;;6.05;4.30;;;14.30;99.90;;;;;;5022903;28;20198;-71
2022/07/09 00:04:19;;;;;;;4.68;4.03;;;14.30;99.90;;;;;;5022648;28;20341;-70
2022/07/09 00:06:45;;;;;;;6.80;4.50;;;14.30;99.90;;;;;;5022115;28;20197;-71
2022/07/09 00:09:12;;;;;;;8.20;4.85;;;14.40;99.90;;;;;;5024077;28;20187;-70
2022/07/09 00:11:37;;;;;;;5.07;4.40;;;14.40;99.90;;;;;;5024254;28;20217;-69
2022/07/09 00:14:03;;;;;;;6.32;4.68;;;14.30;99.90;;;;;;5024269;28;20241;-70
2022/07/09 00:16:29;;;;;;;6.22;4.10;;;14.30;99.90;;;;;;5023553;28;20194;-70
2022/07/09 00:18:54;;;;;;;4.15;3.35;;;14.30;99.90;;;;;;5024694;28;20178;-69
2022/07/09 00:21:20;;;;;;;4.85;4.03;;;14.30;99.90;;;;;;5024451;28;20232;-71
2022/07/09 00:23:45;;;;;;;6.30;3.95;;;14.30;99.90;;;;;;5024289;28;20225;-71
2022/07/09 00:26:11;;;;;;;4.70;4.05;;;14.20;99.90;;;;;;5025147;28;20588;-70
2022/07/09 00:28:37;;;;;;;6.43;4.07;;;14.20;99.90;;;;;;5024610;28;20189;-71
2022/07/09 00:31:02;;;;;;;6.28;3.70;;;14.20;99.90;;;;;;5023884;28;20218;-72
2022/07/09 00:33:28;;;;;;;5.63;4.00;;;14.20;99.90;;;;;;5024542;28;20217;-70
2022/07/09 00:35:53;;;;;;;4.47;3.67;;;14.20;99.90;;;;;;5027989;28;20852;-71
2022/07/09 00:38:19;;;;;;;4.50;4.00;;;14.20;99.90;;;;;;5028550;28;20603;-69
2022/07/09 00:40:45;;;;;;;4.25;3.85;;;14.20;99.90;;;;;;5019436;28;20202;-71
2022/07/09 00:43:18;;;;;;;4.68;3.58;;;14.20;99.90;;;;;;5026796;28;20175;-69
2022/07/09 00:45:45;;;;;;;4.50;3.50;;;14.20;99.90;;;;;;5028106;28;20583;-70
2022/07/09 00:48:12;;;;;;;3.75;3.45;;;14.20;99.90;;;;;;5028161;28;20692;-69
2022/07/09 00:50:39;;;;;;;4.72;3.53;;;14.20;99.90;;;;;;5027668;28;20285;-71
2022/07/09 00:53:06;;;;;;;5.45;3.50;;;14.20;99.90;;;;;;5028011;28;20271;-70
2022/07/09 00:55:32;;;;;;;5.85;3.50;;;14.20;99.90;;;;;;5028628;28;20520;-71
2022/07/09 00:57:58;;;;;;;4.32;3.40;;;14.10;99.90;;;;;;5027810;28;20171;-70
2022/07/09 01:00:23;;;;;;;4.47;3.50;;;14.10;99.90;;;;;;5028046;28;20564;-70
2022/07/09 01:02:49;;;;;;;4.18;3.50;;;14.10;99.90;;;;;;5027326;28;20265;-70
2022/07/09 01:05:15;;;;;;;4.13;3.60;;;14.00;99.90;;;;;;5028165;28;20222;-71
2022/07/09 01:07:41;;;;;;;4.57;3.60;;;13.90;99.90;;;;;;5027158;28;20526;-70
2022/07/09 01:10:06;;;;;;;4.57;3.47;;;14.00;99.90;;;;;;5027723;28;20215;-70
2022/07/09 01:12:32;;;;;;;4.05;3.65;;;14.00;99.90;;;;;;5027078;28;20219;-70
2022/07/09 01:14:58;;;;;;;4.13;3.58;;;13.90;99.90;;;;;;5028005;28;20171;-71
2022/07/09 01:17:24;;;;;;;3.78;3.42;;;13.90;99.90;;;;;;5028736;28;20510;-71
2022/07/09 01:19:49;;;;;;;4.35;3.20;;;13.90;99.90;;;;;;5028154;28;20199;-71
2022/07/09 01:22:15;;;;;;;5.72;4.30;;;13.90;99.90;;;;;;5028137;28;20634;-70
2022/07/09 01:24:40;;;;;;;5.60;3.17;;;13.90;99.90;;;;;;5028527;28;20171;-71
2022/07/09 01:27:07;;;;;;;3.35;2.90;;;13.90;99.90;;;;;;5028262;28;20175;-70
2022/07/09 01:29:33;;;;;;;4.28;3.45;;;13.90;99.90;;;;;;5028189;28;20587;-70
2022/07/09 01:31:59;;;;;;;4.28;3.50;;;13.80;99.90;;;;;;5026894;28;20187;-71
2022/07/09 01:34:24;;;;;;;3.45;3.15;;;13.80;99.90;;;;;;5028039;28;20269;-70
2022/07/09 01:36:50;;;;;;;4.13;3.10;;;13.80;99.90;;;;;;5027607;28;20213;-71
2022/07/09 01:39:16;;;;;;;5.88;3.50;;;13.80;99.90;;;;;;5028066;28;20570;-70
2022/07/09 01:41:42;;;;;;;5.10;3.42;;;13.80;99.90;;;;;;5027985;28;20642;-70
2022/07/09 01:44:08;;;;;;;3.60;3.22;;;13.80;99.90;;;;;;5027808;28;20277;-71
2022/07/09 01:46:34;;;;;;;5.22;3.50;;;13.90;99.90;;;;;;5027567;28;20197;-71
2022/07/09 01:48:59;;;;;;;5.93;3.50;;;13.90;99.90;;;;;;5027673;28;20191;-70
2022/07/09 01:51:25;;;;;;;8.07;3.65;;;14.00;99.90;;;;;;5027572;28;20672;-70
2022/07/09 01:53:51;;;;;;;6.05;3.40;;;14.00;99.90;;;;;;5027574;28;20210;-70
2022/07/09 01:56:16;;;;;;;4.47;3.15;;;14.00;99.90;;;;;;5027657;28;20175;-70
2022/07/09 01:58:43;;;;;;;6.40;3.40;;;14.10;99.90;;;;;;5027467;28;20680;-71
2022/07/09 02:01:09;;;;;;;7.60;3.42;;;14.10;99.90;;;;;;5027128;28;20554;-70
2022/07/09 02:03:35;;;;;;;5.07;2.90;;;14.20;99.90;;;;;;5027328;28;20190;-70
2022/07/09 02:06:00;;;;;;;3.42;2.92;;;14.10;99.90;;;;;;5027372;28;20183;-70
2022/07/09 02:08:27;;;;;;;6.55;3.38;;;14.20;99.90;;;;;;5027343;28;20391;-70
2022/07/09 02:10:54;;;;;;;3.80;3.25;;;14.20;99.90;;;;;;5026491;28;20285;-70
2022/07/09 02:13:20;;;;;;;4.97;3.30;;;14.20;99.90;;;;;;5027250;28;20848;-70
2022/07/09 02:15:45;;;;;;;4.30;3.30;;;14.30;99.90;;;;;;5027202;28;20253;-70
2022/07/09 02:18:12;;;;;;;4.93;3.47;;;14.30;99.90;;;;;;5027203;28;20179;-70
2022/07/09 02:20:38;;;;;;;8.40;3.53;;;14.30;99.90;;;;;;5026453;28;20207;-71
2022/07/09 02:23:03;;;;;;;6.50;3.22;;;14.30;99.90;;;;;;5026843;28;20685;-70
2022/07/09 02:25:29;;;;;;;4.90;3.80;;;14.30;99.90;;;;;;5026733;28;20183;-70
2022/07/09 02:27:55;;;;;;;6.70;3.70;;;14.30;99.90;;;;;;5027485;28;20198;-70
2022/07/09 02:30:20;;;;;;;7.95;3.63;;;14.20;99.90;;;;;;5026991;28;20212;-70
2022/07/09 02:32:46;;;;;;;5.25;3.28;;;14.20;99.90;;;;;;5026564;28;20654;-70
2022/07/09 02:35:12;;;;;;;6.93;3.70;;;14.20;99.90;;;;;;5026356;28;20229;-70
2022/07/09 02:37:37;;;;;;;10.35;3.80;;;14.10;99.90;;;;;;5026454;28;20170;-70
2022/07/09 02:40:04;;;;;;;6.80;3.70;;;14.10;99.90;;;;;;5025823;28;20291;-70
2022/07/09 02:42:30;;;;;;;8.10;3.67;;;14.00;99.90;;;;;;5025837;28;20228;-70
2022/07/09 02:44:55;;;;;;;5.30;3.40;;;14.00;99.90;;;;;;5025869;28;20269;-71
2022/07/09 02:47:21;;;;;;;7.03;3.38;;;14.10;99.90;;;;;;5026437;28;20533;-70
2022/07/09 02:49:47;;;;;;;5.65;3.63;;;14.00;99.90;;;;;;5025580;28;20290;-70
2022/07/09 02:52:12;;;;;;;7.00;3.78;;;14.10;99.90;;;;;;5025348;28;20187;-70
2022/07/09 02:54:38;;;;;;;6.68;4.35;;;14.10;99.90;;;;;;5025579;28;20194;-71
2022/07/09 02:57:04;;;;;;;8.43;4.20;;;14.10;99.90;;;;;;5025196;28;20250;-70
2022/07/09 02:59:29;;;;;;;8.55;3.85;;;14.20;99.90;;;;;;5025214;28;20206;-71
2022/07/09 03:01:55;;;;;;;4.78;3.25;;;14.20;99.90;;;;;;5024515;28;20261;-70
2022/07/09 03:04:20;;;;;;;5.00;3.50;;;14.20;99.90;;;;;;5025044;28;20193;-70
2022/07/09 03:06:47;;;;;;;10.50;3.97;;;14.20;99.90;;;;;;5025544;28;20641;-70
2022/07/09 03:09:13;;;;;;;12.40;3.95;;;14.30;99.90;;;;;;5025289;28;20183;-71
2022/07/09 03:11:38;;;;;;;7.70;3.92;;;14.20;99.90;;;;;;5025004;28;20546;-71
2022/07/09 03:14:04;;;;;;;4.75;3.53;;;14.30;99.90;;;;;;5025047;28;20268;-71
2022/07/09 03:16:29;;;;;;;7.68;3.58;;;14.30;99.90;;;;;;5025113;28;20676;-71
2022/07/09 03:18:55;;;;;;;6.95;3.47;;;14.30;99.90;;;;;;5024954;28;20187;-70
2022/07/09 03:21:20;;;;;;;6.43;4.40;;;14.40;99.90;;;;;;5023525;28;20565;-71
2022/07/09 03:23:46;;;;;;;8.82;4.05;;;14.40;99.90;;;;;;5024395;28;20634;-71
2022/07/09 03:26:12;;;;;;;8.23;3.83;;;14.40;99.90;;;;;;5024561;28;20193;-71
2022/07/09 03:28:38;;;;;;;7.90;3.85;;;14.50;99.90;;;;;;5025680;28;20179;-71
2022/07/09 03:31:04;;;;;;;4.50;3.30;;;14.50;99.90;;;;;;5024556;28;20565;-71
2022/07/09 03:33:30;;;;;;;8.40;3.67;;;14.50;99.90;;;;;;5024609;28;20207;-71
2022/07/09 03:35:55;;;;;;;7.35;4.25;;;14.50;99.90;;;;;;5025333;28;20183;-71
2022/07/09 03:38:22;;;;;;;6.38;3.58;;;14.60;99.90;;;;;;5024762;28;20190;-71
2022/07/09 03:40:47;;;;;;;6.22;3.13;;;14.60;99.90;;;;;;5024396;28;20198;-71
2022/07/09 03:43:13;;;;;;;6.63;3.50;;;14.60;99.90;;;;;;5024936;28;20531;-71
2022/07/09 03:45:39;;;;;;;7.30;3.88;;;14.60;99.90;;;;;;5025111;28;20178;-71
2022/07/09 03:48:05;;;;;;;7.47;3.60;;;14.50;99.90;;;;;;5025008;28;20546;-71
2022/07/09 03:50:31;;;;;;;8.48;3.92;;;14.40;99.90;;;;;;5024872;28;20269;-71
2022/07/09 03:52:57;;;;;;;7.30;3.85;;;14.40;99.90;;;;;;5023925;28;20195;-71
2022/07/09 03:55:23;;;;;;;8.25;3.97;;;14.50;99.90;;;;;;5025086;28;20660;-71
2022/07/09 03:57:49;;;;;;;10.95;3.70;;;14.50;99.90;;;;;;5024374;28;20182;-71
2022/07/09 04:00:15;;;;;;;9.55;3.55;;;14.60;99.90;;;;;;5024372;28;20211;-71
2022/07/09 04:02:40;;;;;;;6.95;3.53;;;14.70;99.90;;;;;;5024456;28;20195;-71
2022/07/09 04:05:07;;;;;;;7.20;3.47;;;14.60;99.90;;;;;;5024404;28;20194;-72
2022/07/09 04:07:33;;;;;;;7.45;4.07;;;14.60;99.90;;;;;;5024552;28;20187;-71
2022/07/09 04:09:58;;;;;;;7.40;3.80;;;14.70;99.90;;;;;;5024266;28;20194;-71
2022/07/09 04:12:24;;;;;;;10.20;4.13;;;14.70;99.90;;;;;;5023961;28;20209;-70
2022/07/09 04:14:49;;;;;;;8.23;3.78;;;14.70;99.90;;;;;;5024417;28;20179;-71
2022/07/09 04:17:15;;;;;;;10.35;4.00;;;14.80;99.90;;;;;;5025215;28;20186;-71
2022/07/09 04:19:41;;;;;;;7.13;3.60;;;14.80;99.90;;;;;;5024278;28;20248;-71
2022/07/09 04:22:06;;;;;;;5.13;3.47;;;14.80;99.90;;;;;;5023771;28;20509;-71
2022/07/09 04:24:32;;;;;;;10.82;3.72;;;14.80;99.90;;;;;;5023886;28;20245;-71
2022/07/09 04:26:57;;;;;;;8.10;3.80;;;14.80;99.90;;;;;;5023515;28;20527;-71
2022/07/09 04:29:23;;;;;;;6.53;3.38;;;14.90;99.90;;;;;;5024042;28;20202;-71
2022/07/09 04:31:49;;;;;;;10.65;4.18;;;14.90;99.90;;;;;;5023702;28;20175;-71
2022/07/09 04:34:15;;;;;;;6.63;3.28;;;14.80;99.90;;;;;;5024245;28;20209;-70
2022/07/09 04:36:41;;;;;;;14.45;4.38;;;14.90;99.90;;;;;;5024591;28;20233;-72
2022/07/09 04:39:06;;;;;;;6.85;3.90;;;14.90;99.90;;;;;;5024536;28;20183;-71
2022/07/09 04:41:32;;;;;;;7.68;3.75;;;14.80;99.90;;;;;;5023727;28;20178;-71
2022/07/09 04:43:57;;;;;;;8.02;3.63;;;14.90;99.90;;;;;;5024072;28;20187;-70
2022/07/09 04:46:24;;;;;;;9.48;3.97;;;14.90;99.90;;;;;;5024302;28;20248;-71
2022/07/09 04:48:50;;;;;;;5.88;3.33;;;14.90;99.90;;;;;;5023916;28;20676;-71
2022/07/09 04:51:16;;;;;;;5.53;3.15;;;14.90;99.90;;;;;;5023583;28;20242;-71
2022/07/09 04:53:41;;;;;;;6.40;3.75;;;14.90;99.90;;;;;;5023965;28;20302;-71
2022/07/09 04:56:07;;;;;;;4.47;3.28;;;15.00;99.90;;;;;;5024280;28;20191;-71
2022/07/09 04:58:33;;;;;;;5.25;3.08;;;15.00;99.90;;;;;;5023798;28;20179;-71
2022/07/09 05:00:59;;;;;;;7.82;4.78;;;15.10;99.90;;;;;;5023615;28;20195;-71
2022/07/09 05:03:25;;;;;;;7.55;4.65;;;15.10;99.90;;;;;;5023917;28;20187;-71
2022/07/09 05:05:52;;;;;;;11.13;4.03;;;15.20;99.90;;;;;;5024071;28;20186;-71
2022/07/09 05:08:18;;;;;;;9.07;3.22;;;15.20;99.90;;;;;;5024231;28;20183;-70
2022/07/09 05:10:44;;;;;;;11.05;3.67;;;15.20;99.90;;;;;;5023066;28;20623;-71
2022/07/09 05:13:09;;;;;;;7.45;3.28;;;15.20;99.90;;;;;;5023686;28;20250;-71
2022/07/09 05:15:35;;;;;;;5.72;3.00;;;15.30;99.90;;;;;;5023625;28;20256;-71
2022/07/09 05:18:01;;;;;;;5.90;2.97;;;15.30;99.90;;;;;;5023803;28;20175;-71
2022/07/09 05:20:27;;;;;;;5.60;2.95;;;15.40;99.90;;;;;;5024443;28;20206;-71
2022/07/09 05:22:52;;;;;;;5.53;3.05;;;15.40;99.90;;;;;;5026357;28;20269;-72
2022/07/09 05:25:18;;;;;;;7.32;3.33;;;15.40;99.90;;;;;;5025848;28;20185;-71
2022/07/09 05:27:45;;;;;;;6.10;3.53;;;15.40;99.90;;;;;;5027489;28;20193;-71
2022/07/09 05:30:14;;;;;;;8.07;3.00;;;15.50;99.90;;;;;;5026006;28;20611;-71
2022/07/09 05:32:39;;;;;;;5.88;3.60;;;15.60;99.90;;;;;;5026354;28;20298;-71
2022/07/09 05:35:05;;;;;;;7.72;3.13;;;15.60;99.90;;;;;;5026865;28;20285;-72
2022/07/09 05:37:31;;;;;;;6.90;3.03;;;15.60;99.90;;;;;;5027412;28;20187;-71
2022/07/09 05:39:57;;;;;;;4.57;2.70;;;15.70;99.90;;;;;;5026528;28;20206;-72
2022/07/09 05:42:23;;;;;;;5.63;3.03;;;15.90;99.90;;;;;;5026597;28;20182;-72
2022/07/09 05:44:49;;;;;;;8.80;3.03;;;15.90;99.90;;;;;;5026663;28;20653;-71
2022/07/09 05:47:15;;;;;;;7.55;3.30;;;16.10;99.90;;;;;;5027101;28;20187;-72
2022/07/09 05:49:41;;;;;;;6.43;3.13;;;16.10;99.90;;;;;;5026320;28;20202;-72
2022/07/09 05:52:06;;;;;;;5.43;2.85;;;16.10;99.90;;;;;;5026330;28;20195;-71
2022/07/09 05:54:32;;;;;;;6.18;2.95;;;16.10;99.90;;;;;;5023497;28;20256;-72
2022/07/09 05:56:58;;;;;;;8.85;3.53;;;16.20;99.90;;;;;;5026136;28;20254;-72
2022/07/09 05:59:23;;;;;;;5.43;3.28;;;16.20;99.90;;;;;;5025795;28;20607;-72
2022/07/09 06:01:49;;;;;;;8.18;3.15;;;16.30;99.90;;;;;;5025656;28;20225;-71
2022/07/09 06:04:14;;;;;;;7.85;3.35;;;16.20;99.90;;;;;;5025783;28;20186;-71
2022/07/09 06:06:40;;;;;;;6.45;3.63;;;16.30;99.90;;;;;;5025972;28;20186;-71
2022/07/09 06:09:05;;;;;;;7.47;3.38;;;16.40;99.90;;;;;;5025842;28;20214;-71
2022/07/09 06:11:31;;;;;;;4.25;2.72;;;16.40;99.90;;;;;;5025657;28;20711;-71
2022/07/09 06:13:56;;;;;;;8.88;3.40;;;16.40;99.90;;;;;;5025675;28;20206;-70
2022/07/09 06:16:22;;;;;;;6.85;3.55;;;16.30;99.90;;;;;;5025890;28;20183;-72
2022/07/09 06:18:48;;;;;;;6.53;3.17;;;16.30;99.90;;;;;;5025398;28;20202;-72
2022/07/09 06:21:13;;;;;;;6.10;3.10;;;16.30;99.90;;;;;;5025117;28;20481;-72
2022/07/09 06:23:39;;;;;;;5.95;3.40;;;16.30;99.90;;;;;;5026252;28;20565;-72
2022/07/09 06:26:05;;;;;;;7.78;3.60;;;16.30;99.90;;;;;;5025792;28;20262;-72
2022/07/09 06:28:30;;;;;;;6.82;3.95;;;16.30;99.90;;;;;;5025558;28;20183;-71
2022/07/09 06:30:56;;;;;;;5.60;3.38;;;16.40;99.90;;;;;;5023793;28;20276;-71
2022/07/09 06:33:22;;;;;;;4.50;2.97;;;16.40;99.90;;;;;;5024968;28;20280;-71
2022/07/09 06:35:47;;;;;;;6.43;2.92;;;16.60;99.90;;;;;;5024649;28;20219;-72
2022/07/09 06:38:13;;;;;;;7.63;3.13;;;16.70;99.90;;;;;;5026243;28;20178;-71
2022/07/09 06:40:39;;;;;;;6.07;2.88;;;16.90;99.90;;;;;;5025761;28;20292;-72
2022/07/09 06:43:04;;;;;;;5.18;2.50;;;16.90;99.90;;;;;;5026228;28;20193;-71
2022/07/09 06:45:30;;;;;;;4.28;2.67;;;16.90;99.90;;;;;;5026348;28;20190;-71
2022/07/09 06:47:56;;;;;;;4.22;2.80;;;16.90;99.90;;;;;;5025895;28;20187;-71
2022/07/09 06:50:21;;;;;;;4.05;1.92;;;17.10;99.90;;;;;;5025942;28;20777;-71
2022/07/09 06:52:47;;;;;;;5.63;2.25;;;17.20;99.90;;;;;;5025488;28;20198;-70
2022/07/09 06:55:12;;;;;;;3.58;2.20;;;17.20;99.90;;;;;;5025490;28;20206;-70
2022/07/09 06:57:38;;;;;;;2.88;2.40;;;17.20;99.90;;;;;;5026117;28;20270;-70
2022/07/09 07:00:07;;;;;;;4.10;2.72;;;17.30;99.90;;;;;;5025315;28;20203;-70
2022/07/09 07:02:33;;;;;;;5.03;2.38;;;17.40;99.90;;;;;;5025230;28;20197;-69
2022/07/09 07:04:59;;;;;;;3.92;2.50;;;17.60;99.90;;;;;;5025554;28;20179;-70
2022/07/09 07:07:25;;;;;;;4.25;1.83;;;17.70;99.90;;;;;;5025934;28;20190;-70
2022/07/09 07:09:50;;;;;;;4.97;2.33;;;17.80;99.90;;;;;;5025119;28;20203;-70
2022/07/09 07:12:16;;;;;;;3.05;2.20;;;17.70;99.90;;;;;;5022985;28;20225;-70
2022/07/09 07:14:42;;;;;;;3.85;2.55;;;17.70;99.90;;;;;;5023101;28;20211;-70
2022/07/09 07:17:08;;;;;;;5.15;2.10;;;17.60;99.90;;;;;;5025465;28;20209;-70
2022/07/09 07:19:34;;;;;;;7.38;2.25;;;17.50;99.90;;;;;;5025010;28;20656;-71
2022/07/09 07:22:00;;;;;;;4.30;2.08;;;17.30;99.90;;;;;;5024738;28;20175;-70
2022/07/09 07:24:25;;;;;;;5.53;2.53;;;17.30;99.90;;;;;;5025281;28;20189;-70
2022/07/09 07:26:51;;;;;;;4.00;1.90;;;17.40;99.90;;;;;;5025298;28;20183;-72
2022/07/09 07:29:17;;;;;;;3.97;2.08;;;17.50;99.90;;;;;;5024854;28;21409;-71
2022/07/09 07:31:42;;;;;;;2.35;2.05;;;17.70;99.90;;;;;;5024375;28;20523;-71
2022/07/09 07:34:08;;;;;;;3.83;2.20;;;17.70;99.90;;;;;;5025062;28;20211;-71
2022/07/09 07:36:34;;;;;;;2.72;2.20;;;17.80;99.90;;;;;;5025257;28;20193;-70
2022/07/09 07:39:00;;;;;;;4.05;2.38;;;17.90;99.90;;;;;;5025072;28;20170;-71
2022/07/09 07:41:25;;;;;;;4.68;2.65;;;17.80;99.90;;;;;;5024578;28;20209;-70
2022/07/09 07:43:51;;;;;;;3.90;2.70;;;17.90;99.90;;;;;;5024792;28;20214;-70
2022/07/09 07:46:17;;;;;;;3.75;2.50;;;17.90;99.90;;;;;;5024776;28;20175;-70
2022/07/09 07:48:42;;;;;;;3.53;2.97;;;18.10;99.90;;;;;;5024917;28;20213;-70
2022/07/09 07:51:09;;;;;;;3.45;3.00;;;18.20;99.90;;;;;;5024049;28;20214;-70
2022/07/09 07:53:35;;;;;;;4.97;2.60;;;18.70;99.90;;;;;;5025063;28;20215;-71
2022/07/09 07:56:05;;;;;;;5.18;2.65;;;18.90;99.60;;;;;;5024721;28;20201;-70
2022/07/09 07:58:31;;;;;;;3.17;2.70;;;19.20;83.60;;;;;;5024919;28;20269;-70
2022/07/09 08:00:57;;;;;;;4.82;2.97;;;19.40;74.40;;;;;;5024033;28;20245;-70
2022/07/09 08:03:22;;;;;;;4.22;3.03;;;19.10;43.70;;;;;;5025249;28;20633;-71
2022/07/09 08:05:48;;;;;;;3.05;2.78;;;19.00;53.70;;;;;;5024732;28;20182;-71
2022/07/09 08:08:14;;;;;;;3.72;3.15;;;19.00;71.90;;;;;;5025305;28;20190;-70
2022/07/09 08:10:39;;;;;;;3.83;3.30;;;19.10;80.10;;;;;;5023727;28;20253;-71
2022/07/09 08:13:05;;;;;;;4.13;3.03;;;19.10;67.00;;;;;;5024889;28;20211;-71
2022/07/09 08:15:30;;;;;;;4.47;3.30;;;19.00;59.40;;;;;;5024464;28;20204;-71
2022/07/09 08:17:56;;;;;;;4.05;3.50;;;19.00;65.30;;;;;;5025110;28;20179;-70
2022/07/09 08:20:22;;;;;;;3.33;3.03;;;19.00;64.00;;;;;;5024258;28;20228;-71
2022/07/09 08:22:48;;;;;;;2.83;2.63;;;19.10;77.20;;;;;;5023796;28;20576;-71
2022/07/09 08:25:14;;;;;;;3.35;2.58;;;19.40;35.60;;;;;;5024629;28;20324;-71
2022/07/09 08:27:40;;;;;;;3.00;2.70;;;19.30;32.40;;;;;;5024915;28;20194;-71
2022/07/09 08:30:06;;;;;;;3.05;2.75;;;19.20;33.90;;;;;;5024357;28;20207;-71
2022/07/09 08:32:32;;;;;;;4.05;2.80;;;19.10;54.10;;;;;;5024167;28;20189;-70
2022/07/09 08:34:57;;;;;;;3.33;2.55;;;19.00;82.60;;;;;;5024284;28;20527;-70
2022/07/09 08:37:23;;;;;;;2.78;2.40;;;19.10;73.20;;;;;;5024600;28;20213;-70
2022/07/09 08:39:49;;;;;;;3.47;2.50;;;19.20;64.50;;;;;;5024231;28;20234;-71
2022/07/09 08:42:14;;;;;;;3.65;2.28;;;19.30;50.50;;;;;;5023590;28;20175;-71
2022/07/09 08:44:46;;;;;;;2.83;2.33;;;19.20;26.70;;;;;;5024682;28;20186;-71
2022/07/09 08:47:11;;;;;;;2.63;2.42;;;19.00;45.10;;;;;;5024573;28;20205;-72
2022/07/09 08:49:38;;;;;;;2.40;2.20;;;18.90;76.30;;;;;;5024288;28;20206;-71
2022/07/09 08:52:06;;;;;;;3.25;2.15;;;18.80;68.30;;;;;;5023725;28;20190;-70
2022/07/09 08:54:33;;;;;;;2.58;2.38;;;19.00;74.60;;;;;;5024143;28;20665;-69
2022/07/09 08:56:59;;;;;;;2.38;2.17;;;19.20;73.40;;;;;;5028040;28;20175;-70
2022/07/09 08:59:25;;;;;;;2.60;2.10;;;19.20;49.90;;;;;;5027691;28;20199;-70
2022/07/09 09:01:50;;;;;;;2.55;2.15;;;19.10;69.10;;;;;;5027640;28;20166;-70
2022/07/09 09:04:18;;;;;;;2.97;2.75;;;19.30;73.80;;;;;;5027823;28;20543;-70
2022/07/09 09:06:43;;;;;;;2.67;2.38;;;19.40;32.30;;;;;;5027866;28;20326;-70
2022/07/09 09:09:16;;;;;;;2.35;2.20;;;19.40;30.00;;;;;;5027897;28;20183;-70
2022/07/09 09:11:41;;;;;;;2.80;2.15;;;19.60;35.10;;;;;;5026918;28;20187;-70
2022/07/09 09:14:17;;;;;;;3.58;2.10;;;19.70;4.00;;;;;;5027139;28;20569;-72
2022/07/09 09:16:42;;;;;;;3.70;1.95;;;19.80;1.00;;;;;;5027483;28;20344;-71
2022/07/09 09:19:09;;;;;;;2.63;2.10;;;19.60;14.00;;;;;;5027357;28;20314;-72
2022/07/09 09:21:37;;;;;;;2.33;2.10;;;19.50;2.60;;;;;;5026967;28;20187;-71
2022/07/09 09:24:03;;;;;;;2.97;1.67;;;19.40;37.60;;;;;;5027743;28;20183;-70
2022/07/09 09:26:28;;;;;;;2.60;2.38;;;19.40;21.30;;;;;;5027516;28;20187;-72
2022/07/09 09:29:01;;;;;;;3.08;1.85;;;19.30;42.40;;;;;;5027409;28;20261;-71
2022/07/09 09:31:28;;;;;;;1.85;1.70;;;19.40;43.80;;;;;;5026826;28;20587;-70
2022/07/09 09:33:57;;;;;;;1.33;1.23;;;19.40;30.70;;;;;;5026908;28;20650;-71
2022/07/09 09:36:36;;;;;;;1.92;1.23;;;19.40;22.80;;;;;;5027596;28;20175;-70
2022/07/09 09:39:23;;;;;;;2.03;1.20;;;19.20;27.00;;;;;;5027299;28;20182;-71
2022/07/09 09:41:51;;;;;;;1.52;0.90;;;19.10;48.00;;;;;;5026664;28;20201;-70
2022/07/09 09:44:44;;;;;;;2.60;1.10;;;19.20;41.00;;;;;;5027322;28;20187;-70
2022/07/09 09:47:10;;;;;;;1.95;1.75;;;19.20;25.20;;;;;;5024258;28;20199;-70
2022/07/09 09:49:40;;;;;;;2.45;1.17;;;19.20;49.20;;;;;;5027352;28;20248;-69
2022/07/09 09:52:10;;;;;;;1.70;1.02;;;19.40;40.50;;;;;;5026175;28;20191;-70
2022/07/09 09:54:37;;;;;;;1.20;1.10;;;19.70;41.30;;;;;;5027061;28;20268;-70
2022/07/09 09:57:06;;;;;;;1.52;0.93;;;20.00;10.40;;;;;;5026936;28;20237;-70
2022/07/09 09:59:36;;;;;;;1.27;0.73;;;20.20;1.00;;;;;;5026949;28;20290;-71
2022/07/09 10:02:04;;;;;;;1.58;1.13;;;20.30;1.00;;;;;;5025944;28;20213;-70
2022/07/09 10:04:30;;;;;;;1.50;1.00;;;20.60;1.00;;;;;;5027378;28;21252;-70
2022/07/09 10:06:55;;;;;;;1.40;0.88;;;20.50;1.00;;;;;;5026594;28;20214;-70
2022/07/09 10:09:21;;;;;;;1.90;1.13;;;20.40;1.00;;;;;;5026816;28;20207;-71
2022/07/09 10:18:53;;;;;;;1.55;0.82;;;20.90;99.90;;;;;;5953859;22;20209;-83
2022/07/09 10:21:30;;;;;;;1.50;1.00;;;21.30;99.90;;;;;;4991521;28;20599;-84
2022/07/09 10:23:56;;;;;;;1.30;1.10;;;21.40;1.00;;;;;;4995394;28;20235;-83
2022/07/09 10:26:21;;;;;;;1.50;1.40;;;21.20;99.90;;;;;;4985116;28;20217;-83
2022/07/09 10:28:47;;;;;;;2.17;1.33;;;21.20;80.20;;;;;;4983704;28;20251;-83
2022/07/09 10:31:20;;;;;;;1.88;1.08;;;21.20;99.90;;;;;;4979404;28;20184;-83
2022/07/09 10:34:00;;;;;;;1.05;0.90;;;21.40;99.90;;;;;;4981752;28;20299;-83
2022/07/09 10:36:27;;;;;;;1.42;1.02;;;21.50;73.20;;;;;;4992920;28;20252;-89
2022/07/09 10:39:46;;;;;;;1.00;0.90;;;21.30;1.00;;;;;;4994316;28;20704;-92
2022/07/09 10:42:21;;;;;;;2.13;1.00;;;21.20;99.90;;;;;;5003519;28;20280;-92
2022/07/09 10:44:49;;;;;;;16.55;4.25;;;21.20;99.90;;;;;;4980023;28;20246;-89
2022/07/09 10:47:15;;;;;;;118.70;22.60;;;20.80;99.90;;;;;;4974383;28;20681;-90
2022/07/09 10:49:41;;;;;;;4.82;1.85;;;20.70;99.90;;;;;;4981743;28;20208;-90
2022/07/09 10:52:08;;;;;;;1.90;1.33;;;20.50;99.90;;;;;;4976553;28;20572;-90
2022/07/09 10:54:44;;;;;;;2.63;1.50;;;20.50;1.00;;;;;;4974994;28;20564;-92
2022/07/09 10:57:10;;;;;;;1.70;1.15;;;20.70;99.90;;;;;;4976726;28;20653;-90
2022/07/09 10:59:40;;;;;;;2.47;1.77;;;20.90;99.90;;;;;;5001899;28;20216;-92
2022/07/09 11:02:16;;;;;;;2.53;1.52;;;21.20;1.00;;;;;;4979054;28;20223;-91
2022/07/09 11:04:42;;;;;;;1.30;1.10;;;21.30;1.00;;;;;;4975753;28;20184;-90
2022/07/09 11:07:07;;;;;;;3.47;1.40;;;21.30;1.00;;;;;;4984783;28;20199;-90
2022/07/09 11:09:36;;;;;;;2.13;1.30;;;21.20;99.90;;;;;;4988772;28;20554;-91
2022/07/09 11:13:08;;;;;;;;;;;;;;;;;;;;;
2022/07/09 11:19:19;;;;;;;1.30;0.90;;;21.80;99.90;;;;;;4910352;28;20219;-90
2022/07/09 11:21:46;;;;;;;2.13;0.90;;;21.80;99.90;;;;;;4978812;28;20298;-90
2022/07/09 11:24:30;;;;;;;2.42;1.20;;;21.80;1.00;;;;;;4979612;28;20216;-92
2022/07/09 11:27:02;;;;;;;2.85;2.15;;;21.80;99.90;;;;;;4984210;28;20189;-90
2022/07/09 11:29:27;;;;;;;3.90;3.28;;;21.60;1.00;;;;;;4977018;28;20693;-90
2022/07/09 11:31:53;;;;;;;3.95;2.15;;;21.50;1.00;;;;;;4974142;28;20193;-90
2022/07/09 11:34:19;;;;;;;2.22;1.40;;;21.70;99.90;;;;;;4984284;28;20219;-91
2022/07/09 11:36:50;;;;;;;1.83;1.10;;;21.90;99.90;;;;;;4983781;28;20184;-91
2022/07/09 11:39:26;;;;;;;1.17;0.85;;;22.10;99.90;;;;;;4998084;28;20208;-90
2022/07/09 11:41:52;;;;;;;4.28;1.70;;;22.20;99.90;;;;;;4990945;28;20426;-90
2022/07/09 11:44:23;;;;;;;1.10;0.90;;;22.20;99.90;;;;;;4969155;28;20240;-88
2022/07/09 11:47:09;;;;;;;1.65;1.00;;;22.00;1.00;;;;;;4976135;28;20608;-88
2022/07/09 11:49:46;;;;;;;0.85;0.82;;;22.10;99.90;;;;;;4974286;28;20681;-88
2022/07/09 11:52:23;;;;;;;2.72;1.70;;;22.40;99.90;;;;;;4973448;28;20235;-88
2022/07/09 11:55:00;;;;;;;6.80;5.40;;;22.50;1.00;;;;;;4994174;28;20303;-88
2022/07/09 11:57:26;;;;;;;1.70;1.20;;;22.50;95.20;;;;;;4980279;28;20199;-89
2022/07/09 11:59:52;;;;;;;2.63;1.30;;;22.50;95.60;;;;;;4981508;28;20250;-89
2022/07/09 12:02:24;;;;;;;2.55;1.45;;;22.50;1.00;;;;;;4975952;28;20313;-87
2022/07/09 12:04:50;;;;;;;1.27;0.98;;;22.40;99.90;;;;;;4982775;28;20884;-91
2022/07/09 12:07:16;;;;;;;1.90;1.48;;;22.30;99.90;;;;;;4977274;28;20255;-89
2022/07/09 12:09:42;;;;;;;1.30;1.00;;;22.10;99.90;;;;;;4984019;28;20215;-89
2022/07/09 12:12:07;;;;;;;2.28;1.15;;;22.10;1.00;;;;;;4982302;28;20664;-89
2022/07/09 12:14:33;;;;;;;1.98;1.42;;;22.10;1.00;;;;;;4981213;28;20729;-89
2022/07/09 12:16:58;;;;;;;2.50;2.00;;;22.00;99.90;;;;;;4975876;28;20188;-90
2022/07/09 12:19:24;;;;;;;3.20;2.30;;;22.00;1.00;;;;;;4977819;28;20250;-91
2022/07/09 12:21:50;;;;;;;1.20;1.10;;;21.80;99.90;;;;;;4983073;28;20196;-88
2022/07/09 12:24:15;;;;;;;2.63;0.95;;;21.70;99.90;;;;;;4981368;28;20190;-89
2022/07/09 12:26:41;;;;;;;1.30;1.20;;;21.70;1.00;;;;;;4982202;28;20192;-89
2022/07/09 12:29:07;;;;;;;1.42;0.98;;;21.60;99.90;;;;;;4975454;28;20250;-89
2022/07/09 12:31:36;;;;;;;1.83;1.00;;;21.80;1.00;;;;;;4985014;28;20192;-89
2022/07/09 12:34:02;;;;;;;4.18;1.20;;;21.70;99.90;;;;;;4987810;28;20215;-89
2022/07/09 12:36:27;;;;;;;0.82;0.82;;;21.80;99.90;;;;;;4984706;28;20191;-89
2022/07/09 12:38:53;;;;;;;2.65;2.10;;;21.80;1.00;;;;;;4988060;28;20212;-90
2022/07/09 12:41:18;;;;;;;1.30;1.20;;;21.90;99.90;;;;;;4985930;28;20684;-90
2022/07/09 12:43:44;;;;;;;2.55;2.08;;;22.00;1.00;;;;;;4988330;28;20571;-90
2022/07/09 12:46:10;;;;;;;2.83;2.28;;;21.90;1.00;;;;;;4985572;28;20684;-91
2022/07/09 12:48:36;;;;;;;0.90;0.90;;;21.90;1.00;;;;;;4987784;28;20650;-89
2022/07/09 12:51:02;;;;;;;2.60;1.00;;;21.80;1.00;;;;;;4977763;28;20192;-90
2022/07/09 12:53:27;;;;;;;0.73;0.73;;;21.90;1.00;;;;;;4987358;28;20204;-89
2022/07/09 12:55:53;;;;;;;0.93;0.70;;;21.70;1.00;;;;;;4987356;28;20192;-89
2022/07/09 12:58:19;;;;;;;1.48;0.90;;;21.90;95.30;;;;;;4985097;28;20188;-91